Bridgton, ME (04009)

12:23 AM EDT on August 30, 2014 (GMT -0400)
Moose Pond (Knights Hill) | Change Station
CLOSE
Current Station
Personal Weather Station
Location: Bridgton, ME
Elevation: 419 ft
Nearby Weather Stations

Elev 419 ft 44.08 °N, 70.81 °W | Updated -3 second ago

Clear
Clear
56.1 °F
Feels Like 56.1 °F
N
0.0
Wind Variable Wind from NW
Gusts 0.0 mph

Today
High -- | Low -- °F
--% Chance of Precip.
Yesterday
High -- | Low -- °F
Precip. -- in
6:03 AM 7:22 PM
Waxing Crescent, 19% visible
Pressure 30.26 in
Visibility 10.0 miles
Clouds Clear
Dew Point 54.4 °F
Humidity 94%
Rainfall 0.00 in
Snow Depth Not available.
UV 0 out of 12
Pollen 8.30 out of 12
Ozone Good
Flu Activity Not available.
METAR KIZG 300354Z AUTO 17003KT 10SM CLR 13/11 A3026 RMK AO2 SLP247 T01280111

More Conditions Fewer Conditions

Pressure 30.26 in
Visibility 10.0 miles
Clouds Clear
Dew Point 54.4 °F
Humidity 94%
Rainfall 0.00 in
Snow Depth Not available.
UV 0 out of 12
Pollen 8.30 out of 12
Ozone Good
Flu Activity Not available.
METAR KIZG 300354Z AUTO 17003KT 10SM CLR 13/11 A3026 RMK AO2 SLP247 T01280111

More Conditions Fewer Conditions

10-Day Weather Forecast

Almanac

Astronomy

Aug. 30, 2014 Rise Set
Actual Time 6:03 AM EDT 7:22 PM EDT
Civil Twilight 5:33 AM EDT 7:52 PM EDT
Nautical Twilight 4:57 AM EDT 8:28 PM EDT
Astronomical Twilight 4:19 AM EDT 9:06 PM EDT
Moon 10:59 AM EDT 9:42 PM EDT
Length of Visible Light 14h 18m
Length of Day
13h 18m
Tomorrow will be 2m 55s shorter.
Waxing Crescent, 19% of the Moon is Illuminated
Today
Waxing Crescent
Sep 2
First Quarter
Sep 8
Full
Sep 15
Last Quarter
Sep 24
New

Yesterday's Extremes

State Highs State Lows

Community

WunderPhotos

Upload Photos

1,748,451 photos uploaded!

Nearby

Air Quality

  Air Quality AQ Index Pollutant
Yesterday Good
OZONE
Current Good
OZONE
Friday Good
OZONE
Friday Good
PM2.5
Saturday Good
OZONE
Saturday Good
PM2.5
Sunday Good
OZONE
Sunday Good
PM2.5
Monday Good
OZONE
Monday Good
PM2.5
Tuesday Good
OZONE
Tuesday Good
PM2.5
Wednesday Good
OZONE
Wednesday Good
PM2.5

Snow Depth

Station Depth Elevation
No new snow has been reported.

Earthquake Activity

City Distance Mag. Time & Date
No recent earthquake activity has been reported nearby.
Minimum magnitude displayed is 2.5.

Coastal Water Temperatures

Place Temperature
No Stations Reporting

Nearby Weather Stations